createdAt,value
2022-10-01T00:00:20.756Z,0.21
2022-10-01T00:02:48.784Z,0.28
2022-10-01T00:05:18.487Z,0.29
2022-10-01T00:07:46.546Z,0.30
2022-10-01T00:10:16.920Z,0.30
2022-10-01T00:12:49.699Z,0.27
2022-10-01T00:15:22.480Z,0.34
2022-10-01T00:17:50.406Z,0.34
2022-10-01T00:20:20.608Z,0.36
2022-10-01T00:22:48.547Z,0.36
2022-10-01T00:25:16.556Z,0.37
2022-10-01T00:27:47.290Z,0.34
2022-10-01T00:30:15.295Z,0.37
2022-10-01T00:32:43.292Z,0.37
2022-10-01T00:35:13.194Z,0.39
2022-10-01T00:37:43.181Z,0.39
2022-10-01T00:40:11.336Z,0.35
2022-10-01T00:42:39.747Z,0.37
2022-10-01T00:45:08.469Z,0.37
2022-10-01T00:47:44.458Z,0.35
2022-10-01T00:50:12.411Z,0.37
2022-10-01T00:52:43.226Z,0.37
2022-10-01T00:55:26.071Z,0.36
2022-10-01T00:57:55.670Z,0.40
2022-10-01T01:00:24.636Z,0.40
2022-10-01T01:02:53.502Z,0.42
2022-10-01T01:05:22.304Z,0.43
2022-10-01T01:07:53.843Z,0.44
2022-10-01T01:11:03.764Z,0.46
2022-10-01T01:13:57.703Z,0.47
2022-10-01T01:16:40.553Z,0.47
2022-10-01T01:19:27.066Z,0.49
2022-10-01T01:22:03.718Z,0.52
2022-10-01T01:24:49.202Z,0.53
2022-10-01T01:27:37.508Z,0.55
2022-10-01T01:30:12.424Z,0.56
2022-10-01T01:32:50.449Z,0.55
2022-10-01T01:35:52.689Z,0.60
2022-10-01T01:38:25.985Z,0.61
2022-10-01T01:40:56.606Z,0.61
2022-10-01T01:43:34.163Z,0.62
2022-10-01T01:46:05.810Z,0.62
2022-10-01T01:48:39.039Z,0.67
2022-10-01T01:51:18.669Z,0.67
2022-10-01T01:53:46.468Z,0.73
2022-10-01T01:56:14.718Z,0.74
2022-10-01T01:58:42.759Z,0.76
2022-10-01T02:01:35.709Z,0.78
2022-10-01T02:04:26.831Z,0.81
2022-10-01T02:07:12.567Z,0.83
2022-10-01T02:09:49.896Z,0.87
2022-10-01T02:12:41.123Z,0.91
2022-10-01T02:15:26.987Z,0.94
2022-10-01T02:18:09.215Z,0.99
2022-10-01T02:21:06.450Z,1.01
2022-10-01T02:23:39.400Z,1.03
2022-10-01T02:26:14.188Z,1.03
2022-10-01T02:28:43.446Z,1.06
2022-10-01T02:31:14.116Z,1.04
2022-10-01T02:33:44.048Z,0.99
2022-10-01T02:36:14.588Z,1.03
2022-10-01T02:38:46.376Z,1.02
2022-10-01T02:41:19.502Z,0.99
2022-10-01T02:43:57.598Z,0.99
2022-10-01T02:46:49.916Z,1.02
2022-10-01T02:49:17.992Z,1.06
2022-10-01T02:52:08.896Z,1.07
2022-10-01T02:54:59.894Z,1.14
2022-10-01T02:57:29.600Z,1.21
2022-10-01T03:00:00.626Z,1.43
2022-10-01T03:02:32.295Z,1.59
2022-10-01T03:05:00.752Z,1.74
2022-10-01T03:07:31.136Z,1.83
2022-10-01T03:09:59.301Z,1.93
2022-10-01T03:12:27.642Z,1.97
2022-10-01T03:14:55.579Z,2.21
2022-10-01T03:17:23.592Z,2.33
2022-10-01T03:19:52.885Z,2.32
2022-10-01T03:22:25.291Z,2.31
2022-10-01T03:24:54.290Z,2.27
2022-10-01T03:27:23.664Z,2.33
2022-10-01T03:29:51.898Z,2.45
2022-10-01T03:32:20.881Z,2.62
2022-10-01T03:34:49.296Z,2.75
2022-10-01T03:37:17.284Z,3.02
2022-10-01T03:39:47.800Z,3.25
2022-10-01T03:42:17.548Z,3.38
2022-10-01T03:44:45.122Z,3.55
2022-10-01T03:47:13.068Z,3.47
2022-10-01T03:49:42.548Z,3.45
2022-10-01T03:52:10.503Z,3.62
2022-10-01T03:54:39.920Z,3.77
2022-10-01T03:57:08.166Z,3.90
2022-10-01T03:59:36.710Z,3.94
2022-10-01T04:02:04.729Z,4.11
2022-10-01T04:04:34.606Z,4.26
2022-10-01T04:07:02.232Z,4.47
2022-10-01T04:09:30.361Z,4.51
2022-10-01T04:12:00.614Z,4.57
2022-10-01T04:14:28.731Z,4.48
2022-10-01T04:16:56.668Z,4.46
2022-10-01T04:19:24.919Z,4.55
2022-10-01T04:21:52.894Z,4.67
2022-10-01T04:24:20.868Z,4.67
2022-10-01T04:26:52.047Z,4.78
2022-10-01T04:29:20.079Z,4.88
2022-10-01T04:31:48.067Z,4.90
2022-10-01T04:34:17.698Z,5.02
2022-10-01T04:36:46.105Z,5.03
2022-10-01T04:39:18.024Z,5.19
2022-10-01T04:41:47.845Z,5.33
2022-10-01T04:44:15.806Z,5.37
2022-10-01T04:46:44.331Z,5.44
2022-10-01T04:49:13.230Z,5.48
2022-10-01T04:51:41.209Z,5.45
2022-10-01T04:54:09.251Z,5.50
2022-10-01T04:56:37.578Z,5.44
2022-10-01T04:59:05.648Z,5.30
2022-10-01T05:01:34.023Z,5.35
2022-10-01T05:04:04.123Z,5.42
2022-10-01T05:06:31.797Z,5.52
2022-10-01T05:08:59.778Z,5.59
2022-10-01T05:11:29.547Z,5.64
2022-10-01T05:13:57.313Z,5.63
2022-10-01T05:16:25.389Z,5.41
2022-10-01T05:18:55.784Z,5.31
2022-10-01T05:21:23.796Z,5.37
2022-10-01T05:23:51.771Z,5.34
2022-10-01T05:26:21.532Z,5.31
2022-10-01T05:28:49.505Z,5.16
2022-10-01T05:31:19.424Z,5.14
2022-10-01T05:33:47.647Z,5.11
2022-10-01T05:36:16.020Z,5.01
2022-10-01T05:38:43.978Z,4.79
2022-10-01T05:41:14.519Z,4.59
2022-10-01T05:43:44.325Z,4.62
2022-10-01T05:46:12.732Z,4.68
2022-10-01T05:48:42.504Z,4.70
2022-10-01T05:51:10.202Z,4.71
2022-10-01T05:53:38.658Z,4.71
2022-10-01T05:56:07.995Z,4.57
2022-10-01T05:58:36.147Z,4.49
2022-10-01T06:01:05.478Z,4.50
2022-10-01T06:03:34.591Z,4.58
2022-10-01T06:06:02.622Z,4.65
2022-10-01T06:08:30.602Z,4.68
2022-10-01T06:11:21.937Z,4.66
2022-10-01T06:13:49.966Z,4.66
2022-10-01T06:16:18.114Z,4.37
2022-10-01T06:18:49.365Z,4.56
2022-10-01T06:21:17.399Z,4.53
2022-10-01T06:23:45.550Z,4.58
2022-10-01T06:26:15.287Z,4.69
2022-10-01T06:28:42.981Z,4.87
2022-10-01T06:31:10.953Z,4.95
2022-10-01T06:33:40.581Z,5.04
2022-10-01T06:36:08.633Z,5.09
2022-10-01T06:38:36.723Z,5.05
2022-10-01T06:41:06.833Z,5.00
2022-10-01T06:43:35.007Z,5.01
2022-10-01T06:46:06.090Z,5.03
2022-10-01T06:48:37.080Z,5.04
2022-10-01T06:51:06.364Z,5.04
2022-10-01T06:53:34.350Z,5.11
2022-10-01T06:56:09.589Z,5.08
2022-10-01T06:58:38.041Z,5.17
2022-10-01T07:01:06.089Z,5.19
2022-10-01T07:03:36.332Z,5.12
2022-10-01T07:06:06.070Z,5.08
2022-10-01T07:08:34.060Z,5.08
2022-10-01T07:11:05.717Z,5.08
2022-10-01T07:13:33.700Z,5.10
2022-10-01T07:16:05.509Z,5.14
2022-10-01T07:18:34.406Z,5.20
2022-10-01T07:21:02.390Z,5.20
2022-10-01T07:23:30.550Z,5.23
2022-10-01T07:25:59.580Z,5.26
2022-10-01T07:28:28.779Z,5.26
2022-10-01T07:30:59.894Z,5.18
2022-10-01T07:33:29.732Z,5.04
2022-10-01T07:36:01.758Z,5.05
2022-10-01T07:38:29.926Z,4.98
2022-10-01T07:40:59.974Z,4.98
2022-10-01T07:43:27.894Z,4.91
2022-10-01T07:45:58.752Z,4.90
2022-10-01T07:48:29.733Z,4.78
2022-10-01T07:50:58.384Z,4.83
2022-10-01T07:53:26.718Z,4.85
2022-10-01T07:55:55.830Z,4.92
2022-10-01T07:58:24.639Z,4.97
2022-10-01T08:00:58.802Z,5.00
2022-10-01T08:03:29.245Z,5.03
2022-10-01T08:05:57.292Z,5.03
2022-10-01T08:08:25.395Z,5.06
2022-10-01T08:10:53.577Z,5.10
2022-10-01T08:13:25.318Z,5.10
2022-10-01T08:16:12.711Z,5.13
2022-10-01T08:18:41.600Z,5.15
2022-10-01T08:21:09.820Z,5.17
2022-10-01T08:23:37.986Z,5.15
2022-10-01T08:26:08.878Z,5.10
2022-10-01T08:28:36.892Z,5.10
2022-10-01T08:31:20.117Z,5.10
2022-10-01T08:33:48.135Z,5.08
2022-10-01T08:36:17.509Z,5.12
2022-10-01T08:38:50.468Z,5.22
2022-10-01T08:41:31.309Z,5.34
2022-10-01T08:44:02.680Z,5.48
2022-10-01T08:46:37.463Z,5.56
2022-10-01T08:49:15.168Z,5.57
2022-10-01T08:51:46.240Z,5.55
2022-10-01T08:54:35.228Z,5.52
2022-10-01T08:57:10.346Z,5.51
2022-10-01T08:59:49.075Z,5.46
2022-10-01T09:02:23.208Z,5.38
2022-10-01T09:05:10.319Z,5.35
2022-10-01T09:08:05.218Z,5.29
2022-10-01T09:10:43.551Z,5.31
2022-10-01T09:13:26.436Z,5.34
2022-10-01T09:16:10.261Z,5.36
2022-10-01T09:19:01.105Z,5.36
2022-10-01T09:21:49.549Z,5.38
2022-10-01T09:24:30.657Z,5.35
2022-10-01T09:27:01.380Z,5.39
2022-10-01T09:29:41.095Z,5.37
2022-10-01T09:32:14.262Z,5.28
2022-10-01T09:34:46.112Z,5.27
2022-10-01T09:37:20.168Z,5.21
2022-10-01T09:40:18.142Z,5.17
2022-10-01T09:42:48.652Z,5.13
2022-10-01T09:45:19.357Z,5.10
2022-10-01T09:47:52.059Z,5.09
2022-10-01T09:50:28.677Z,4.93
2022-10-01T09:53:02.040Z,5.05
2022-10-01T09:55:41.779Z,5.06
2022-10-01T09:58:14.842Z,5.06
2022-10-01T10:00:44.348Z,5.05
2022-10-01T10:03:29.627Z,5.05
2022-10-01T10:06:00.673Z,5.05
2022-10-01T10:08:37.677Z,5.05
2022-10-01T10:11:20.937Z,5.04
2022-10-01T10:13:56.170Z,5.04
2022-10-01T10:16:36.441Z,5.03
2022-10-01T10:19:18.264Z,5.03
2022-10-01T10:21:58.548Z,4.97
2022-10-01T10:24:38.811Z,5.01
2022-10-01T10:27:20.921Z,4.99
2022-10-01T10:29:49.868Z,4.97
2022-10-01T10:32:27.081Z,4.96
2022-10-01T10:35:03.104Z,4.81
2022-10-01T10:37:37.509Z,4.92
2022-10-01T10:40:12.518Z,4.84
2022-10-01T10:42:49.167Z,4.87
2022-10-01T10:45:21.125Z,4.86
2022-10-01T10:47:54.553Z,4.83
2022-10-01T10:50:40.634Z,4.80
2022-10-01T10:53:30.741Z,4.76
2022-10-01T10:56:02.263Z,4.73
2022-10-01T10:58:41.063Z,4.70
2022-10-01T11:01:14.139Z,4.70
2022-10-01T11:03:50.480Z,4.67
2022-10-01T11:06:19.238Z,4.63
2022-10-01T11:09:00.458Z,4.59
2022-10-01T11:11:37.451Z,4.55
2022-10-01T11:15:02.398Z,4.53
2022-10-01T11:17:49.928Z,4.48
2022-10-01T11:20:26.539Z,4.44
2022-10-01T11:23:07.638Z,4.42
2022-10-01T11:25:45.524Z,4.39
2022-10-01T11:28:46.680Z,4.36
2022-10-01T11:31:31.271Z,4.31
2022-10-01T11:34:38.645Z,4.27
2022-10-01T11:37:16.972Z,4.21
2022-10-01T11:39:49.080Z,4.17
2022-10-01T11:42:23.000Z,4.14
2022-10-01T11:45:03.162Z,4.08
2022-10-01T11:47:44.938Z,3.87
2022-10-01T11:50:29.976Z,4.03
2022-10-01T11:52:57.999Z,3.97
2022-10-01T11:55:47.525Z,3.93
2022-10-01T11:58:52.215Z,3.87
2022-10-01T12:02:00.327Z,3.83
2022-10-01T12:04:59.706Z,3.77
2022-10-01T12:07:48.342Z,3.71
2022-10-01T12:10:33.884Z,3.67
2022-10-01T12:13:16.897Z,3.64
2022-10-01T12:15:57.477Z,3.55
2022-10-01T12:18:33.372Z,3.61
2022-10-01T12:21:14.941Z,3.58
2022-10-01T12:23:52.526Z,3.59
2022-10-01T12:26:35.725Z,3.57
2022-10-01T12:29:25.425Z,3.53
2022-10-01T12:32:25.434Z,3.48
2022-10-01T12:35:13.370Z,3.47
2022-10-01T12:37:52.381Z,3.45
2022-10-01T12:40:48.556Z,3.38
2022-10-01T12:44:01.582Z,3.35
2022-10-01T12:46:48.762Z,3.33
2022-10-01T12:49:23.170Z,3.31
2022-10-01T12:52:29.375Z,3.31
2022-10-01T12:55:18.667Z,3.29
2022-10-01T12:57:58.540Z,3.26
2022-10-01T13:00:32.486Z,3.00
2022-10-01T13:03:11.905Z,3.22
2022-10-01T13:06:00.931Z,3.17
2022-10-01T13:08:38.794Z,3.13
2022-10-01T13:11:31.002Z,3.11
2022-10-01T13:14:02.339Z,3.09
2022-10-01T13:16:39.492Z,3.07
2022-10-01T13:19:38.193Z,3.04
2022-10-01T13:22:16.291Z,3.02
2022-10-01T13:24:55.499Z,2.99
2022-10-01T13:27:39.950Z,2.96
2022-10-01T13:30:20.309Z,2.93
2022-10-01T13:32:55.662Z,2.93
2022-10-01T13:35:35.549Z,2.93
2022-10-01T13:38:39.449Z,2.89
2022-10-01T13:41:24.553Z,2.84
2022-10-01T13:43:59.986Z,2.81
2022-10-01T13:46:33.113Z,2.80
2022-10-01T13:49:19.954Z,2.79
2022-10-01T13:51:48.150Z,2.76
2022-10-01T13:54:30.366Z,2.75
2022-10-01T13:57:12.272Z,2.68
2022-10-01T13:59:42.569Z,2.71
2022-10-01T14:02:32.716Z,2.69
2022-10-01T14:05:31.771Z,2.67
2022-10-01T14:08:11.902Z,2.64
2022-10-01T14:11:10.143Z,2.65
2022-10-01T14:14:05.726Z,2.59
2022-10-01T14:16:41.385Z,2.59
2022-10-01T14:19:11.107Z,2.58
2022-10-01T14:21:42.400Z,2.58
2022-10-01T14:24:36.628Z,2.56
2022-10-01T14:27:34.038Z,2.52
2022-10-01T14:30:20.676Z,2.46
2022-10-01T14:33:28.006Z,2.43
2022-10-01T14:36:36.510Z,2.43
2022-10-01T14:39:28.642Z,2.40
2022-10-01T14:41:58.939Z,2.39
2022-10-01T14:44:29.813Z,2.32
2022-10-01T14:47:00.158Z,2.29
2022-10-01T14:49:33.714Z,2.25
2022-10-01T14:52:29.427Z,2.23
2022-10-01T14:54:58.440Z,2.22
2022-10-01T14:57:35.023Z,2.19
2022-10-01T15:00:12.239Z,2.17
2022-10-01T15:02:49.377Z,2.17
2022-10-01T15:05:23.004Z,2.16
2022-10-01T15:07:51.408Z,2.16
2022-10-01T15:10:21.488Z,2.16
2022-10-01T15:12:54.271Z,2.13
2022-10-01T15:15:51.270Z,2.06
2022-10-01T15:18:22.535Z,2.11
2022-10-01T15:20:56.329Z,2.11
2022-10-01T15:23:28.067Z,2.08
2022-10-01T15:25:59.641Z,2.05
2022-10-01T15:28:32.658Z,1.97
2022-10-01T15:31:04.137Z,2.01
2022-10-01T15:33:41.015Z,1.98
2022-10-01T15:36:19.610Z,1.95
2022-10-01T15:38:49.597Z,1.92
2022-10-01T15:41:32.647Z,1.91
2022-10-01T15:44:05.429Z,1.92
2022-10-01T15:46:36.800Z,1.85
2022-10-01T15:49:20.633Z,1.88
2022-10-01T15:52:36.431Z,1.88
2022-10-01T15:55:22.792Z,1.87
2022-10-01T15:58:08.086Z,1.84
2022-10-01T16:00:40.632Z,1.83
2022-10-01T16:03:25.678Z,1.83
2022-10-01T16:05:55.586Z,1.82
2022-10-01T16:08:33.503Z,1.80
2022-10-01T16:11:18.664Z,1.77
2022-10-01T16:13:51.743Z,1.74
2022-10-01T16:16:31.626Z,1.72
2022-10-01T16:19:20.008Z,1.70
2022-10-01T16:22:22.735Z,1.69
2022-10-01T16:24:55.522Z,1.66
2022-10-01T16:27:26.523Z,1.62
2022-10-01T16:30:05.302Z,1.58
2022-10-01T16:32:33.985Z,1.57
2022-10-01T16:35:24.843Z,1.58
2022-10-01T16:38:09.708Z,1.58
2022-10-01T16:40:50.387Z,1.56
2022-10-01T16:43:25.078Z,1.54
2022-10-01T16:45:53.904Z,1.54
2022-10-01T16:48:26.547Z,1.55
2022-10-01T16:50:57.222Z,1.54
2022-10-01T16:53:25.699Z,1.53
2022-10-01T16:55:57.086Z,1.48
2022-10-01T16:58:25.783Z,1.43
2022-10-01T17:00:54.101Z,1.40
2022-10-01T17:03:24.126Z,1.29
2022-10-01T17:05:52.158Z,1.36
2022-10-01T17:08:20.162Z,1.35
2022-10-01T17:11:00.146Z,1.35
2022-10-01T17:13:31.727Z,1.32
2022-10-01T17:16:00.961Z,1.36
2022-10-01T17:18:30.230Z,1.29
2022-10-01T17:20:59.492Z,1.33
2022-10-01T17:23:27.490Z,1.30
2022-10-01T17:25:56.471Z,1.27
2022-10-01T17:28:25.031Z,1.22
2022-10-01T17:30:53.042Z,1.16
2022-10-01T17:33:21.572Z,1.11
2022-10-01T17:35:56.182Z,1.07
2022-10-01T17:38:25.913Z,1.09
2022-10-01T17:40:56.713Z,1.01
2022-10-01T17:43:25.239Z,0.87
2022-10-01T17:46:03.585Z,1.05
2022-10-01T17:48:31.666Z,1.02
2022-10-01T17:51:06.467Z,0.98
2022-10-01T17:53:42.124Z,0.91
2022-10-01T17:56:15.291Z,0.82
2022-10-01T17:58:45.527Z,0.76
2022-10-01T18:01:22.574Z,0.68
2022-10-01T18:04:00.882Z,0.65
2022-10-01T18:06:49.254Z,0.59
2022-10-01T18:09:17.483Z,0.52
2022-10-01T18:11:45.506Z,0.48
2022-10-01T18:14:13.663Z,0.44
2022-10-01T18:16:42.062Z,0.39
2022-10-01T18:19:52.381Z,0.35
2022-10-01T18:22:03.151Z,0.26
2022-10-01T18:24:31.537Z,0.22
2022-10-01T18:26:59.473Z,0.17
2022-10-01T18:29:28.784Z,0.10
2022-10-01T18:32:16.957Z,-0.01
2022-10-01T18:35:00.458Z,-0.08
2022-10-01T18:37:44.615Z,-0.10
2022-10-01T18:40:23.683Z,-0.11
2022-10-01T18:43:00.624Z,-0.14
2022-10-01T18:46:12.416Z,-0.24
2022-10-01T18:48:53.410Z,-0.32
2022-10-01T18:52:00.222Z,-0.42
2022-10-01T18:54:40.015Z,-0.50
2022-10-01T18:57:50.046Z,-0.58
2022-10-01T19:00:24.307Z,-0.63
2022-10-01T19:03:00.526Z,-0.63
2022-10-01T19:05:34.569Z,-0.65
2022-10-01T19:08:21.878Z,-0.68
2022-10-01T19:11:03.592Z,-0.98
2022-10-01T19:13:49.666Z,-0.77
2022-10-01T19:16:51.910Z,-0.78
2022-10-01T19:19:38.266Z,-0.79
2022-10-01T19:22:27.902Z,-0.82
2022-10-01T19:25:01.495Z,-0.81
2022-10-01T19:28:10.459Z,-0.87
2022-10-01T19:30:54.344Z,-0.90
2022-10-01T19:33:23.459Z,-0.92
2022-10-01T19:35:59.489Z,-0.96
2022-10-01T19:38:38.732Z,-1.20
2022-10-01T19:41:15.678Z,-0.99
2022-10-01T19:44:05.031Z,-1.02
2022-10-01T19:46:51.250Z,-1.05
2022-10-01T19:49:29.882Z,-1.08
2022-10-01T19:52:02.476Z,-1.10
2022-10-01T19:54:38.331Z,-1.16
2022-10-01T19:57:16.890Z,-1.20
2022-10-01T19:59:44.948Z,-1.28
2022-10-01T20:02:30.387Z,-1.21
2022-10-01T20:05:29.890Z,-1.21
2022-10-01T20:08:04.008Z,-1.21
2022-10-01T20:10:37.750Z,-1.24
2022-10-01T20:13:23.948Z,-1.30
2022-10-01T20:16:08.297Z,-1.31
2022-10-01T20:18:42.338Z,-1.31
2022-10-01T20:21:22.578Z,-1.33
2022-10-01T20:24:05.892Z,-1.33
2022-10-01T20:26:46.118Z,-1.37
2022-10-01T20:29:47.395Z,-1.42
2022-10-01T20:32:32.589Z,-1.46
2022-10-01T20:35:21.696Z,-1.50
2022-10-01T20:38:27.727Z,-1.52
2022-10-01T20:41:06.646Z,-1.54
2022-10-01T20:43:45.268Z,-1.59
2022-10-01T20:46:17.562Z,-1.61
2022-10-01T20:48:59.126Z,-1.64
2022-10-01T20:51:42.491Z,-1.69
2022-10-01T20:54:25.432Z,-1.76
2022-10-01T20:57:22.184Z,-1.73
2022-10-01T20:59:57.483Z,-1.74
2022-10-01T21:02:56.180Z,-1.74
2022-10-01T21:05:35.597Z,-1.74
2022-10-01T21:08:19.558Z,-1.81
2022-10-01T21:10:54.608Z,-1.98
2022-10-01T21:13:31.329Z,-1.79
2022-10-01T21:16:18.875Z,-1.80
2022-10-01T21:18:58.063Z,-1.79
2022-10-01T21:21:55.399Z,-1.83
2022-10-01T21:24:50.801Z,-1.87
2022-10-01T21:27:47.587Z,-1.89
2022-10-01T21:30:21.396Z,-1.93
2022-10-01T21:32:52.377Z,-1.95
2022-10-01T21:35:37.656Z,-2.00
2022-10-01T21:38:31.428Z,-2.00
2022-10-01T21:41:30.211Z,-1.99
2022-10-01T21:44:26.217Z,-2.02
2022-10-01T21:47:14.843Z,-2.03
2022-10-01T21:50:03.589Z,-2.06
2022-10-01T21:52:32.941Z,-2.08
2022-10-01T21:55:23.071Z,-2.10
2022-10-01T21:58:03.522Z,-2.14
2022-10-01T22:00:33.289Z,-2.16
2022-10-01T22:03:20.080Z,-2.19
2022-10-01T22:06:07.212Z,-2.25
2022-10-01T22:09:01.208Z,-2.32
2022-10-01T22:11:36.691Z,-2.34
2022-10-01T22:14:26.389Z,-2.38
2022-10-01T22:17:00.958Z,-2.41
2022-10-01T22:19:33.173Z,-2.40
2022-10-01T22:22:27.163Z,-2.39
2022-10-01T22:24:58.797Z,-2.38
2022-10-01T22:27:45.036Z,-2.41
2022-10-01T22:30:18.051Z,-2.44
2022-10-01T22:33:10.338Z,-2.50
2022-10-01T22:35:56.758Z,-2.52
2022-10-01T22:38:34.457Z,-2.58
2022-10-01T22:41:10.996Z,-2.60
2022-10-01T22:43:43.444Z,-2.63
2022-10-01T22:46:23.586Z,-2.66
2022-10-01T22:49:02.648Z,-2.68
2022-10-01T22:51:36.402Z,-2.69
2022-10-01T22:54:16.312Z,-2.72
2022-10-01T22:56:56.266Z,-2.75
2022-10-01T22:59:31.456Z,-2.77
2022-10-01T23:02:12.471Z,-2.77
2022-10-01T23:05:00.389Z,-2.76
2022-10-01T23:07:53.222Z,-2.80
2022-10-01T23:10:36.867Z,-2.82
2022-10-01T23:13:12.566Z,-2.81
2022-10-01T23:15:52.612Z,-2.85
2022-10-01T23:18:57.519Z,-2.89
2022-10-01T23:21:52.128Z,-2.90
2022-10-01T23:24:47.961Z,-3.00
2022-10-01T23:27:42.033Z,-2.97
2022-10-01T23:30:17.228Z,-2.98
2022-10-01T23:33:07.004Z,-3.00
2022-10-01T23:36:07.341Z,-3.02
2022-10-01T23:38:45.527Z,-3.03
2022-10-01T23:41:50.465Z,-3.01
2022-10-01T23:44:48.803Z,-2.99
2022-10-01T23:47:29.882Z,-2.98
2022-10-01T23:50:01.491Z,-2.98
2022-10-01T23:52:53.077Z,-2.97
2022-10-01T23:56:01.616Z,-2.96
2022-10-01T23:58:34.841Z,-2.97
